Clutier, Iowa
Current Conditions -  °F | °C
As of 2:55 AM on Wednesday 26 Nov 2014 (Local Time) from KVTI Reporting Station
Clear Clear  
Wind Chill: -7°   Ceiling: Unl
Heat Index: -4°   Visibility: 10mi
Dew Point: -6°   Wind: 5mph
Humidity: 82%   Direction: 140°SE
Pressure: 30.03"   Gusts: NA
Location:  42.08°N, 92.4°W
Report Text: KVTI 260855Z AUTO 14004KT 10SM CLR M04/M06 A3003 RMK AO2 T10371064
Loading
Personal Weather Stations






























Interactive Weather Map New forecast layout! Learn more

10-Day Weather Forecast

Advertisements
Track Severe Weather on mobile